Flight Track Log - Related Links

Times and Time Zones

All times are in EDT time to prevent confusion due to time zone crossing. See the UAL1494 flight status page for this flight to view local times or setup timezone preferences in your user account.

Time Position Orientation Groundspeed Altitude Reporting Facility
EDT Latitude Longitude Course Direction KTS MPH feet Rate Location/Type
Fri 06:05:03 PM 37.6500 -122.3500 72° East 190 219 1,500  Level Northern Cal TRACON
Fri 06:06:03 PM 37.6833 -122.2833 58° Northeast 246 283 3,600 2,750 Climbing Northern Cal TRACON
Fri 06:07:03 PM 37.7500 -122.2500 22° Northeast 288 331 7,000 3,287 Climbing Northern Cal TRACON
Fri 06:07:58 PM 37.8000 -122.1833 46° Northeast 280 322 9,900 2,243 Climbing Northern Cal TRACON
Fri 06:08:00 PM 37.7817 -121.8429 69° East  Level FlightAware Approximate
Fri 06:08:58 PM 37.8167 -122.0833 78° East 327 376 11,300  Level Northern Cal TRACON
Fri 06:09:00 PM 37.8368 -121.6962 70° East  Level FlightAware Approximate
Fri 06:09:58 PM 37.8500 -121.9500 72° East 374 430 13,400  Level Northern Cal TRACON
Fri 06:10:00 PM 37.8924 -121.5473 72° East  Level FlightAware Approximate
Fri 06:11:14 PM 37.8922 -121.7950 71° East 391 450 16,200  Level Oakland Center
Fri 06:12:15 PM 37.9239 -121.6575 74° East 406 467 18,400 2,000 Climbing Oakland Center
Fri 06:13:17 PM 37.9569 -121.5131 74° East 425 489 20,300 1,839 Climbing Oakland Center
Fri 06:14:19 PM 37.9922 -121.3661 73° East 441 507 22,200 1,805 Climbing Oakland Center
Fri 06:15:20 PM 38.0267 -121.2136 74° East 452 520 24,000 1,659 Climbing Oakland Center
Fri 06:16:22 PM 38.0625 -121.0561 74° East 466 536 25,600 1,597 Climbing Oakland Center
Fri 06:17:24 PM 38.1069 -120.8625 74° East 477 549 27,300 1,415 Climbing Oakland Center
Fri 06:18:25 PM 38.1478 -120.6978 72° East 487 560 28,500 1,268 Climbing Oakland Center
Fri 06:19:27 PM 38.1861 -120.5269 74° East 500 575 29,900 1,452 Climbing Oakland Center
Fri 06:20:29 PM 38.2169 -120.3533 77° East 506 582 31,500 1,463 Climbing Oakland Center
Fri 06:21:30 PM 38.2464 -120.1789 78° East 506 582 32,900 1,268 Climbing Oakland Center
Fri 06:22:32 PM 38.2769 -120.0047 77° East 507 583 34,100 1,016 Climbing Oakland Center
Fri 06:23:34 PM 38.3136 -119.7953 77° East 508 585 35,000 439 Climbing Oakland Center
Fri 06:24:35 PM 38.3417 -119.6183 79° East 512 589 35,000  Level Oakland Center
Fri 06:25:37 PM 38.3736 -119.4342 77° East 514 592 35,000  Level Oakland Center
Fri 06:26:39 PM 38.4028 -119.2589 78° East 510 587 35,000  Level Oakland Center
Fri 06:27:41 PM 38.4317 -119.0819 78° East 511 588 35,000  Level Oakland Center
Fri 06:28:42 PM 38.4592 -118.9053 79° East 512 589 35,000  Level Oakland Center
Fri 06:29:43 PM 38.4886 -118.7300 78° East 509 586 35,000  Level Oakland Center
Fri 06:30:45 PM 38.5153 -118.5542 79° East 509 586 35,000  Level Oakland Center
Fri 06:31:47 PM 38.5486 -118.3419 79° East 510 587 35,000  Level Oakland Center
Fri 06:32:48 PM 38.5767 -118.1647 78° East 512 589 35,000  Level Oakland Center
Fri 06:33:50 PM 38.6047 -117.9783 79° East 513 590 35,000  Level Oakland Center
Fri 06:34:51 PM 38.6322 -117.7986 79° East 513 590 35,000  Level Oakland Center
Fri 06:35:53 PM 38.6586 -117.6189 79° East 511 588 35,000  Level Oakland Center
Fri 06:36:54 PM 38.6850 -117.4389 79° East 511 588 35,000  Level Oakland Center
Fri 06:37:56 PM 38.7117 -117.2589 79° East 511 588 35,000  Level Oakland Center
Fri 06:38:58 PM 38.7381 -117.0789 79° East 511 588 35,000  Level Oakland Center
Fri 06:39:59 PM 38.7639 -116.8975 80° East 513 590 35,000  Level Oakland Center
Fri 06:41:03 PM 38.7881 -116.7181 80° East 511 588 35,000  Level Salt Lake Center
Fri 06:42:02 PM 38.8136 -116.5367 80° East 513 590 35,000  Level Oakland Center
Fri 06:43:06 PM 38.8433 -116.3222 80° East 511 588 35,000  Level Salt Lake Center
Fri 06:44:05 PM 38.8675 -116.1478 80° East 511 588 35,000  Level Oakland Center
Fri 06:45:10 PM 38.8919 -115.9622 80° East 512 589 35,000  Level Salt Lake Center
Fri 06:46:12 PM 38.9158 -115.7839 80° East 509 586 35,000  Level Salt Lake Center
Fri 06:47:14 PM 38.9389 -115.6044 81° East 510 587 35,000  Level Salt Lake Center
Fri 06:48:15 PM 38.9625 -115.4242 80° East 510 587 35,000  Level Salt Lake Center
Fri 06:49:17 PM 38.9911 -115.2136 80° East 515 593 35,000  Level Salt Lake Center
Fri 06:50:19 PM 39.0131 -115.0347 81° East 510 587 35,000  Level Salt Lake Center
Fri 06:51:21 PM 39.0358 -114.8547 81° East 510 587 35,000  Level Salt Lake Center
Fri 06:52:22 PM 39.0583 -114.6739 81° East 511 588 35,000  Level Salt Lake Center
Fri 06:53:24 PM 39.0800 -114.4953 81° East 508 585 35,000  Level Salt Lake Center
Fri 06:54:26 PM 39.1017 -114.3156 81° East 507 583 35,000  Level Salt Lake Center
Fri 06:55:28 PM 39.1225 -114.1344 82° East 511 588 35,000  Level Salt Lake Center
Fri 06:56:29 PM 39.1489 -113.9183 81° East 511 588 35,000  Level Salt Lake Center
Fri 06:57:31 PM 39.1694 -113.7372 82° East 511 588 35,000  Level Salt Lake Center
Fri 06:58:33 PM 39.1892 -113.5564 82° East 510 587 35,000  Level Salt Lake Center
Fri 06:59:35 PM 39.2094 -113.3781 82° East 506 582 35,000  Level Salt Lake Center
Fri 07:00:36 PM 39.2292 -113.1967 82° East 509 586 35,000  Level Salt Lake Center
Fri 07:01:38 PM 39.2483 -113.0169 82° East 507 583 35,000  Level Salt Lake Center
Fri 07:02:40 PM 39.2678 -112.8369 82° East 507 583 35,000  Level Salt Lake Center
Fri 07:03:41 PM 39.2881 -112.6428 82° East 506 582 35,000  Level Salt Lake Center
Fri 07:04:43 PM 39.3092 -112.4664 81° East 504 580 35,000  Level Salt Lake Center
Fri 07:05:45 PM 39.3414 -112.2964 76° East 499 574 35,000  Level Salt Lake Center
Fri 07:06:47 PM 39.3797 -112.0897 76° East 495 570 35,000  Level Salt Lake Center
Fri 07:07:48 PM 39.4119 -111.9189 76° East 492 566 35,000  Level Salt Lake Center
Fri 07:08:50 PM 39.4428 -111.7469 77° East 494 568 35,000  Level Salt Lake Center
Fri 07:09:52 PM 39.4742 -111.5758 77° East 492 566 35,000  Level Salt Lake Center
Fri 07:10:53 PM 39.5056 -111.4058 76° East 490 564 35,000  Level Salt Lake Center
Fri 07:11:55 PM 39.5369 -111.2239 77° East 493 567 35,000  Level Salt Lake Center
Fri 07:12:57 PM 39.5714 -111.0275 77° East 499 574 35,000  Level Salt Lake Center
Fri 07:13:58 PM 39.6022 -110.8567 77° East 506 582 35,000  Level Salt Lake Center
Fri 07:15:00 PM 39.6308 -110.6831 78° East 513 590 35,000  Level Salt Lake Center
Fri 07:16:02 PM 39.6658 -110.4811 77° East 514 592 35,000  Level Salt Lake Center
Fri 07:17:03 PM 39.6950 -110.3067 78° East 516 594 35,000  Level Salt Lake Center
Fri 07:18:05 PM 39.7294 -110.1036 77° East 515 593 35,000  Level Salt Lake Center
Fri 07:19:07 PM 39.7658 -109.9317 75° East 516 594 35,000  Level Salt Lake Center
Fri 07:20:08 PM 39.8153 -109.7358 72° East 510 587 35,000  Level Salt Lake Center
Fri 07:21:10 PM 39.8603 -109.5667 71° East 515 593 35,000  Level Salt Lake Center
Fri 07:22:12 PM 39.9039 -109.3972 71° East 514 592 35,000  Level Salt Lake Center
Fri 07:23:14 PM 39.9553 -109.1969 71° East 518 596 35,000  Level Salt Lake Center
Fri 07:24:15 PM 39.9986 -109.0253 72° East 518 596 35,000  Level Salt Lake Center
Fri 07:24:45 PM 40.0197 -108.9378 72° East 516 594 35,000  Level Denver Center
Fri 07:25:47 PM 40.0697 -108.7364 72° East 518 596 35,000  Level Denver Center
Fri 07:26:49 PM 40.1119 -108.5642 72° East 518 596 35,000  Level Denver Center
Fri 07:27:21 PM 40.1333 -108.4792 72° East 519 597 35,000  Level Salt Lake Center
Fri 07:28:23 PM 40.1836 -108.2756 72° East 523 602 35,000  Level Salt Lake Center
Fri 07:28:53 PM 40.2039 -108.1850 74° East 526 605 35,000  Level Denver Center
Fri 07:29:55 PM 40.2467 -108.0081 72° East 531 611 35,000  Level Denver Center
Fri 07:30:57 PM 40.2964 -107.7994 73° East 536 617 35,000  Level Denver Center
Fri 07:31:59 PM 40.3383 -107.6206 73° East 537 618 35,000  Level Denver Center
Fri 07:33:01 PM 40.3883 -107.4125 72° East 535 616 35,000  Level Denver Center
Fri 07:34:03 PM 40.4297 -107.2344 73° East 534 615 35,000  Level Denver Center
Fri 07:35:05 PM 40.4769 -107.0278 73° East 530 610 35,000  Level Denver Center
Fri 07:36:07 PM 40.5183 -106.8528 73° East 538 619 35,000  Level Denver Center
Fri 07:37:09 PM 40.5617 -106.6644 73° East 538 619 35,000  Level Denver Center
Fri 07:38:12 PM 40.6097 -106.4561 73° East 540 621 35,000  Level Denver Center
Fri 07:39:14 PM 40.6572 -106.2419 74° East 544 626 35,000  Level Denver Center
Fri 07:40:16 PM 40.6997 -106.0422 74° East 547 629 35,000  Level Denver Center
Fri 07:41:18 PM 40.7417 -105.8517 74° East 543 625 35,000  Level Denver Center
Fri 07:42:20 PM 40.7819 -105.6617 74° East 539 620 35,000  Level Denver Center
Fri 07:43:22 PM 40.8233 -105.4711 74° East 538 619 35,000  Level Denver Center
Fri 07:44:24 PM 40.8633 -105.2814 74° East 538 619 35,000  Level Denver Center
Fri 07:45:26 PM 40.9017 -105.0950 75° East 530 610 35,000  Level Denver Center
Fri 07:46:28 PM 40.9497 -104.8692 74° East 530 610 35,000  Level Denver Center
Fri 07:47:30 PM 40.9892 -104.6800 74° East 532 612 35,000  Level Denver Center
Fri 07:48:32 PM 41.0256 -104.5019 75° East 528 608 35,000  Level Denver Center
Fri 07:49:34 PM 41.0683 -104.2906 75° East 531 611 35,000  Level Denver Center
Fri 07:50:36 PM 41.1044 -104.1119 75° East 528 608 35,000  Level Denver Center
Fri 07:51:38 PM 41.1464 -103.9017 75° East 530 610 35,000  Level Denver Center
Fri 07:52:40 PM 41.1817 -103.7219 75° East 529 609 35,000  Level Denver Center
Fri 07:53:42 PM 41.2228 -103.5106 75° East 530 610 35,000  Level Denver Center
Fri 07:54:45 PM 41.2581 -103.3292 75° East 531 611 35,000  Level Denver Center
Fri 07:55:47 PM 41.2981 -103.1183 76° East 529 609 35,000 97 Level Denver Center
Fri 07:56:49 PM 41.3339 -102.9356 75° East 534 615 35,200 774 Climbing Denver Center
Fri 07:57:51 PM 41.3728 -102.7222 76° East 533 613 36,600 871 Climbing Denver Center
Fri 07:58:53 PM 41.4061 -102.5461 76° East 535 616 37,000 194 Climbing Denver Center
Fri 07:59:55 PM 41.4456 -102.3311 76° East 535 616 37,000  Level Denver Center
Fri 08:00:57 PM 41.4800 -102.1467 76° East 536 617 37,000  Level Denver Center
Fri 08:01:59 PM 41.5183 -101.9322 77° East 532 612 37,000  Level Denver Center
Fri 08:03:01 PM 41.5519 -101.7472 76° East 533 613 37,000  Level Denver Center
Fri 08:04:03 PM 41.5903 -101.5311 77° East 534 615 37,000  Level Denver Center
Fri 08:05:05 PM 41.6219 -101.3456 77° East 534 615 37,000  Level Denver Center
Fri 08:06:07 PM 41.6542 -101.1594 77° East 535 616 37,000  Level Denver Center
Fri 08:07:09 PM 41.6914 -100.9419 77° East 535 616 37,000  Level Denver Center
Fri 08:08:11 PM 41.7236 -100.7547 77° East 536 617 37,000  Level Denver Center
Fri 08:09:14 PM 41.7592 -100.5383 78° East 533 613 37,000  Level Denver Center
Fri 08:10:16 PM 41.7894 -100.3525 78° East 533 613 37,000  Level Denver Center
Fri 08:11:18 PM 41.8244 -100.1381 78° East 528 608 37,000  Level Denver Center
Fri 08:12:20 PM 41.8539 -99.9542 78° East 527 606 37,000  Level Denver Center
Fri 08:13:22 PM 41.8881 -99.7394 78° East 527 606 37,000  Level Denver Center
Fri 08:14:24 PM 41.9144 -99.5742 78° East 525 604 37,000  Level Denver Center
Fri 08:15:26 PM 41.9503 -99.3433 78° East 523 602 37,000  Level Denver Center
Fri 08:16:02 PM 41.9689 -99.2294 78° East 525 604 37,000  Level Minneapolis Center
Fri 08:17:04 PM 41.9972 -99.0375 79° East 522 601 37,000  Level Minneapolis Center
Fri 08:18:07 PM 42.0247 -98.8461 79° East 520 598 37,000  Level Minneapolis Center
Fri 08:19:09 PM 42.0464 -98.6544 81° East 518 596 37,000  Level Minneapolis Center
Fri 08:20:11 PM 42.0650 -98.4622 83° East 517 595 37,000  Level Minneapolis Center
Fri 08:21:13 PM 42.0833 -98.2692 83° East 518 596 37,000  Level Minneapolis Center
Fri 08:22:15 PM 42.1039 -98.0642 82° East 522 601 37,000  Level Minneapolis Center
Fri 08:23:17 PM 42.1256 -97.8386 83° East 526 605 37,000  Level Minneapolis Center
Fri 08:24:19 PM 42.1411 -97.6706 83° East 530 610 37,000  Level Minneapolis Center
Fri 08:25:21 PM 42.1633 -97.4322 83° East 533 613 37,000  Level Minneapolis Center
Fri 08:26:23 PM 42.1811 -97.2325 83° East 536 617 37,000  Level Minneapolis Center
Fri 08:27:25 PM 42.1989 -97.0306 83° East 539 620 37,000  Level Minneapolis Center
Fri 08:28:27 PM 42.2161 -96.8300 83° East 539 620 37,000  Level Minneapolis Center
Fri 08:29:29 PM 42.2333 -96.6311 83° East 535 616 37,000  Level Minneapolis Center
Fri 08:30:31 PM 42.2494 -96.4308 84° East 534 615 37,000  Level Minneapolis Center
Fri 08:31:33 PM 42.2658 -96.2333 84° East 531 611 37,000  Level Minneapolis Center
Fri 08:32:35 PM 42.2847 -95.9928 84° East 532 612 37,000  Level Minneapolis Center
Fri 08:33:38 PM 42.3011 -95.7936 84° East 531 611 37,000  Level Minneapolis Center
Fri 08:34:40 PM 42.3158 -95.5928 84° East 534 615 37,000  Level Minneapolis Center
Fri 08:35:42 PM 42.3300 -95.3947 84° East 531 611 37,000  Level Minneapolis Center
Fri 08:36:44 PM 42.3439 -95.1997 84° East 526 605 37,000  Level Minneapolis Center
Fri 08:37:46 PM 42.3583 -95.0008 84° East 529 609 37,000  Level Minneapolis Center
Fri 08:38:48 PM 42.3711 -94.8044 85° East 525 604 37,000  Level Minneapolis Center
Fri 08:39:50 PM 42.3861 -94.5678 85° East 526 605 37,000  Level Minneapolis Center
Fri 08:40:52 PM 42.3986 -94.3708 85° East 525 604 37,000  Level Minneapolis Center
Fri 08:41:54 PM 42.4100 -94.1969 85° East 526 605 37,000  Level Minneapolis Center
Fri 08:42:56 PM 42.4239 -93.9625 85° East 527 606 37,000  Level Minneapolis Center
Fri 08:43:58 PM 42.4361 -93.7669 85° East 527 606 37,000  Level Minneapolis Center
Fri 08:45:00 PM 42.4467 -93.5717 86° East 526 605 37,000  Level Minneapolis Center
Fri 08:46:02 PM 42.4581 -93.3767 85° East 525 604 37,000  Level Minneapolis Center
Fri 08:47:04 PM 42.4689 -93.1808 86° East 527 606 37,000  Level Minneapolis Center
Fri 08:48:07 PM 42.4811 -92.9469 86° East 526 605 37,000  Level Minneapolis Center
Fri 08:49:09 PM 42.4903 -92.7522 86° East 524 603 37,000 -290 Level Minneapolis Center
Fri 08:50:11 PM 42.5006 -92.5583 86° East 523 602 36,400 -823 Descending Minneapolis Center
Fri 08:51:13 PM 42.5100 -92.3647 86° East 522 601 35,300 -677 Descending Minneapolis Center
Fri 08:52:15 PM 42.5200 -92.1344 87° East 520 598 35,000 -145 Descending Minneapolis Center
Fri 08:53:17 PM 42.5264 -91.9442 87° East 516 594 35,000 -435 Level Minneapolis Center
Fri 08:54:19 PM 42.5247 -91.7539 91° East 516 594 34,100 -1,113 Descending Minneapolis Center
Fri 08:55:21 PM 42.5242 -91.5628 90° East 519 597 32,700 -1,258 Descending Minneapolis Center
Fri 08:56:23 PM 42.5250 -91.3319 90° East 523 602 31,500 -823 Descending Minneapolis Center
Fri 08:57:25 PM 42.5250 -91.1442 90° East 514 592 31,000 -242 Descending Minneapolis Center
Fri 08:58:27 PM 42.5239 -90.9547 90° East 511 588 31,000  Level Minneapolis Center
Fri 08:59:29 PM 42.5233 -90.7636 90° East 513 590 31,000  Level Minneapolis Center
Fri 09:00:55 PM 42.5231 -90.4583 90° East 515 593 31,000 -284 Level Chicago Center
Fri 09:01:57 PM 42.5200 -90.2656 91° East 516 594 30,300 -1,016 Descending Chicago Center
Fri 09:02:59 PM 42.5022 -90.0756 97° East 514 592 28,900 -1,984 Descending Chicago Center
Fri 09:04:01 PM 42.4853 -89.8672 96° East 493 567 26,200 -2,496 Descending Chicago Center
Fri 09:05:04 PM 42.4725 -89.6942 96° East 468 539 23,700 -2,160 Descending Chicago Center
Fri 09:06:06 PM 42.4606 -89.5253 95° East 454 522 21,700 -2,000 Descending Chicago Center
Fri 09:07:07 PM 42.4481 -89.3639 96° East 436 502 19,600 -2,098 Descending Chicago Center
Fri 09:08:09 PM 42.4342 -89.2083 97° East 420 483 17,400 -2,323 Descending Chicago Center
Fri 09:09:11 PM 42.4200 -89.0308 96° East 403 464 14,800 -2,274 Descending Chicago Center
Fri 09:10:13 PM 42.4081 -88.8878 96° East 392 451 12,700 -1,984 Descending Chicago Center
Fri 09:11:15 PM 42.3961 -88.7500 97° East 379 436 10,700 -1,210 Descending Chicago Center
Fri 09:12:17 PM 42.3861 -88.6228 96° East 359 413 10,200 -726 Descending Chicago Center
Fri 09:13:19 PM 42.3758 -88.5175 97° East 309 356 9,200 -720 Descending Chicago Center
Fri 09:14:22 PM 42.3464 -88.4217 113° Southeast 291 335 8,700 -726 Descending Chicago Center
Fri 09:15:23 PM 42.2969 -88.3422 130° Southeast 276 318 7,700 -1,220 Descending Chicago Center
Fri 09:16:25 PM 42.2433 -88.2592 131° Southeast 253 291 6,200 -1,306 Descending Chicago Center
Fri 09:17:27 PM 42.1978 -88.1878 131° Southeast 252 290 5,000 -629 Descending Chicago Center
Fri 09:18:29 PM 42.1561 -88.1200 130° Southeast 241 277 4,900 -660 Descending Chicago Center
Fri 09:19:07 PM 42.1167 -88.0833 145° Southeast 216 249 3,900 -1,154 Descending Chicago TRACON
Fri 09:20:13 PM 42.0833 -88.0333 132° Southeast 171 197 2,900 -900 Descending Chicago TRACON
Fri 09:21:07 PM 42.0500 -88.0000 143° Southeast 150 173 2,100 -700 Descending Chicago TRACON
Fri 09:22:13 PM 42.0167 -87.9667 143° Southeast 120 138 1,500 -619 Descending Chicago TRACON
Fri 09:23:13 PM 42.0000 -87.9333 124° Southeast 130 150 800 -700 Descending Chicago TRACON

Login

Don't have an account? Register now (free) for customized features, flight alerts, and more!